Time;durP1;ratioP1;P1;durP2;ratioP2;P2;SDS_P1;SDS_P2;PMS_P1;PMS_P2;Temp;Humidity;BMP_temperature;BMP_pressure;BME280_temperature;BME280_humidity;BME280_pressure;Samples;Min_cycle;Max_cycle;Signal;HPM_P1;HPM_P2
2023/12/03 14:16:15;;;;;;;9.52;4.80;;;;;;;10.61;78.10;100522.81;10497875;27;98130;-78
2023/12/03 14:21:19;;;;;;;11.57;4.90;;;;;;;10.66;77.17;100500.66;10498087;27;96829;-83
2023/12/03 14:26:23;;;;;;;6.50;4.07;;;;;;;10.84;78.16;100504.41;10496545;27;96908;-84
2023/12/03 14:31:32;;;;;;;8.98;5.03;;;;;;;10.84;77.14;100513.19;10495254;27;96914;-85
2023/12/03 14:36:57;;;;;;;7.22;4.22;;;;;;;10.89;78.15;100497.19;10445131;22;98367;-79
2023/12/03 14:42:00;;;;;;;7.85;4.22;;;;;;;10.90;77.24;100488.41;10388574;28;98239;-79
2023/12/03 14:47:05;;;;;;;7.53;4.43;;;;;;;10.91;77.59;100472.53;10412019;28;96874;-78
2023/12/03 14:52:13;;;;;;;9.18;4.47;;;;;;;11.47;75.40;100425.59;10445515;27;96760;-79
2023/12/03 14:57:16;;;;;;;9.55;4.97;;;;;;;12.04;74.16;100435.50;10453965;27;96615;-79
2023/12/03 15:02:23;;;;;;;7.88;4.60;;;;;;;12.07;74.33;100428.31;10451583;27;96867;-79
2023/12/03 15:07:27;;;;;;;9.43;4.50;;;;;;;11.89;74.23;100426.44;10453207;27;97256;-79
2023/12/03 15:12:32;;;;;;;9.00;4.70;;;;;;;12.05;75.46;100443.34;10452800;27;96663;-79
2023/12/03 15:17:38;;;;;;;6.38;4.00;;;;;;;12.18;75.89;100441.03;10453505;27;96693;-79
2023/12/03 15:22:43;;;;;;;6.70;3.78;;;;;;;12.25;76.29;100424.91;10451633;27;97161;-79
2023/12/03 15:27:49;;;;;;;7.72;3.13;;;;;;;12.19;76.78;100429.56;10425074;28;96613;-78
2023/12/03 15:32:54;;;;;;;6.47;3.75;;;;;;;11.99;76.31;100440.13;10392274;28;96702;-79
2023/12/03 15:37:57;;;;;;;;;;;;;;;11.87;77.11;100432.72;10383200;28;96868;-78
2023/12/03 15:43:00;;;;;;;6.95;3.50;;;;;;;12.00;76.34;100426.00;10415043;28;97408;-79
2023/12/03 15:48:06;;;;;;;8.98;3.67;;;;;;;12.08;76.47;100424.75;10407567;28;97147;-79
2023/12/03 15:53:11;;;;;;;4.88;3.03;;;;;;;11.97;75.29;100411.16;10382786;28;97392;-79
2023/12/03 15:58:16;;;;;;;6.10;2.88;;;;;;;11.88;74.52;100397.50;10400627;28;97203;-79
2023/12/03 16:03:22;;;;;;;4.03;2.50;;;;;;;12.04;75.02;100388.03;10423889;28;96779;-79
2023/12/03 16:08:25;;;;;;;2.60;1.33;;;;;;;12.18;73.88;100393.56;10423756;28;97381;-79
2023/12/03 16:13:30;;;;;;;2.30;1.38;;;;;;;12.43;72.84;100388.88;10423667;28;97943;-79
2023/12/03 16:18:39;;;;;;;4.68;2.42;;;;;;;12.48;72.94;100386.91;10423000;28;97257;-79
2023/12/03 16:23:43;;;;;;;4.45;2.67;;;;;;;12.34;73.71;100382.25;10422868;28;96714;-79
2023/12/03 16:28:47;;;;;;;3.97;2.40;;;;;;;12.35;74.10;100367.28;10410451;28;96767;-79
2023/12/03 16:33:52;;;;;;;9.18;4.18;;;;;;;11.99;75.32;100342.53;10411385;28;96835;-79
2023/12/03 16:38:55;;;;;;;;;;;;;;;12.02;75.52;100331.84;10421305;28;96987;-79
2023/12/03 16:43:58;;;;;;;5.70;2.92;;;;;;;11.98;75.55;100327.63;10422629;28;96702;-79
2023/12/03 16:49:05;;;;;;;4.32;2.85;;;;;;;12.11;74.55;100320.91;10422724;28;96684;-79
2023/12/03 16:54:08;;;;;;;6.15;3.45;;;;;;;12.02;74.30;100305.47;10422199;28;96725;-79
2023/12/03 16:59:12;;;;;;;5.45;2.25;;;;;;;12.14;74.09;100316.34;10422179;28;96730;-79
2023/12/03 17:04:18;;;;;;;5.07;2.75;;;;;;;12.09;75.13;100313.06;10421154;28;97113;-79
2023/12/03 17:09:22;;;;;;;5.70;3.00;;;;;;;12.08;74.82;100302.56;10339635;28;97553;-79
2023/12/03 17:14:27;;;;;;;3.72;2.30;;;;;;;12.12;74.68;100285.66;10338578;28;96650;-79
2023/12/03 17:19:36;;;;;;;7.38;4.50;;;;;;;12.09;74.18;100273.50;10338407;28;96662;-79
2023/12/03 17:24:41;;;;;;;4.35;2.92;;;;;;;12.09;74.53;100252.38;10396979;28;96988;-79
2023/12/03 17:29:44;;;;;;;5.95;2.60;;;;;;;12.03;75.72;100255.28;10384559;28;96724;-79
2023/12/03 17:34:49;;;;;;;5.30;2.58;;;;;;;12.18;74.41;100253.75;10379082;28;96683;-79
2023/12/03 17:39:53;;;;;;;3.78;2.25;;;;;;;12.31;73.95;100244.31;10394133;28;97024;-79
2023/12/03 17:44:57;;;;;;;2.70;1.73;;;;;;;12.31;74.15;100246.97;10420744;28;96732;-79
2023/12/03 17:50:07;;;;;;;1.08;0.88;;;;;;;12.40;74.07;100246.53;10420647;28;97207;-79
2023/12/03 17:55:13;;;;;;;3.42;0.90;;;;;;;12.34;74.88;100231.00;10419822;28;96991;-79
2023/12/03 18:00:17;;;;;;;1.65;0.82;;;;;;;12.36;75.01;100222.06;10337731;28;97325;-79
2023/12/03 18:05:24;;;;;;;1.00;0.80;;;;;;;12.49;74.12;100212.66;10370537;28;96760;-79
2023/12/03 18:10:28;;;;;;;1.95;1.10;;;;;;;12.52;74.05;100185.25;10378026;28;97478;-79
2023/12/03 18:15:34;;;;;;;1.17;0.85;;;;;;;12.51;74.30;100178.28;10405938;28;96870;-79
2023/12/03 18:20:41;;;;;;;1.73;0.68;;;;;;;12.63;73.15;100179.44;10419917;28;96624;-79
2023/12/03 18:25:46;;;;;;;0.57;0.57;;;;;;;12.70;73.65;100168.56;10397949;28;97484;-79
2023/12/03 18:30:51;;;;;;;2.00;0.90;;;;;;;12.79;73.91;100140.84;10391474;28;96810;-79
2023/12/03 18:35:56;;;;;;;3.88;1.27;;;;;;;12.78;73.51;100128.53;10418906;28;96883;-79
2023/12/03 18:41:00;;;;;;;0.63;0.47;;;;;;;13.19;72.06;100122.03;10419368;28;96701;-79
2023/12/03 18:46:04;;;;;;;1.55;0.60;;;;;;;13.08;72.59;100112.00;10419313;28;96900;-79
2023/12/03 18:51:15;;;;;;;1.10;0.80;;;;;;;13.17;72.39;100116.78;10418849;28;96870;-79
2023/12/03 18:56:20;;;;;;;0.93;0.50;;;;;;;13.12;72.42;100105.59;10418723;28;96771;-79
2023/12/03 19:01:24;;;;;;;0.77;0.47;;;;;;;13.20;72.00;100105.22;10423540;27;96750;-79
2023/12/03 19:06:29;;;;;;;1.67;0.70;;;;;;;13.25;72.75;100085.56;10425528;28;97506;-79
2023/12/03 19:11:34;;;;;;;1.98;0.60;;;;;;;13.18;73.27;100078.88;10426690;28;97187;-79
2023/12/03 19:16:39;;;;;;;0.43;0.40;;;;;;;13.30;72.57;100066.78;10425587;28;97083;-79
2023/12/03 19:21:45;;;;;;;0.67;0.60;;;;;;;13.34;72.20;100069.22;10424983;28;97597;-79
2023/12/03 19:26:50;;;;;;;0.73;0.55;;;;;;;13.48;72.31;100047.31;10424829;28;96770;-79
2023/12/03 19:31:56;;;;;;;1.40;0.73;;;;;;;13.42;72.26;100053.78;10399987;28;97527;-79
2023/12/03 19:37:05;;;;;;;0.95;0.40;;;;;;;13.51;71.95;100039.22;10382548;28;96685;-79
2023/12/03 19:42:10;;;;;;;1.58;0.70;;;;;;;13.67;71.63;100019.75;10424465;28;96766;-79
2023/12/03 19:47:14;;;;;;;0.93;0.50;;;;;;;13.62;71.99;100019.16;10424177;28;97279;-79
2023/12/03 19:52:28;;;;;;;0.70;0.45;;;;;;;13.56;71.79;100016.88;10424367;28;96834;-79
2023/12/03 19:57:33;;;;;;;0.40;0.40;;;;;;;13.71;71.69;100009.03;10423907;28;96713;-79
2023/12/03 20:02:38;;;;;;;0.90;0.60;;;;;;;13.71;71.65;100011.66;10423892;28;96733;-79
2023/12/03 20:07:46;;;;;;;0.60;0.47;;;;;;;13.70;72.03;100002.88;10423439;28;97122;-79
2023/12/03 20:12:51;;;;;;;;;;;;;;;13.74;70.79;99985.91;10423492;27;98213;-79
2023/12/03 20:17:54;;;;;;;0.45;0.45;;;;;;;13.78;72.02;99994.53;10423127;28;96911;-79
2023/12/03 20:23:00;;;;;;;3.53;1.20;;;;;;;13.83;71.29;99963.38;10383064;28;97787;-79
2023/12/03 20:28:05;;;;;;;0.40;0.30;;;;;;;13.95;71.10;99967.97;10381296;28;96916;-79
2023/12/03 20:33:08;;;;;;;0.80;0.40;;;;;;;13.75;72.99;99971.72;10387732;28;97179;-81
2023/12/03 20:38:17;;;;;;;1.00;0.60;;;;;;;13.50;76.08;99948.47;10380779;28;97355;-82
2023/12/03 20:43:21;;;;;;;1.05;0.40;;;;;;;13.37;76.87;99947.47;10380645;28;96626;-80
2023/12/03 20:48:27;;;;;;;0.32;0.32;;;;;;;13.23;77.54;99949.16;10408208;28;97558;-79
2023/12/03 20:53:39;;;;;;;0.80;0.40;;;;;;;13.17;78.21;99971.47;10422123;28;96683;-80
2023/12/03 20:58:48;;;;;;;0.47;0.30;;;;;;;13.12;78.75;99975.31;10421620;28;96803;-82
2023/12/03 21:03:57;;;;;;;0.38;0.38;;;;;;;13.07;79.73;99972.91;10420210;28;96817;-82
2023/12/03 21:09:08;;;;;;;0.30;0.20;;;;;;;13.04;79.82;99957.25;10422137;28;97058;-82
2023/12/03 21:14:11;;;;;;;0.60;0.45;;;;;;;13.01;80.14;99943.34;10421520;28;96711;-82
2023/12/03 21:19:15;;;;;;;0.73;0.35;;;;;;;12.95;81.15;99928.69;10395385;28;96729;-80
2023/12/03 21:24:23;;;;;;;1.02;0.32;;;;;;;13.00;81.61;99923.16;10420603;27;96876;-83
2023/12/03 21:29:29;;;;;;;1.35;0.30;;;;;;;12.95;82.41;99951.59;10420845;28;97076;-82
2023/12/03 21:34:36;;;;;;;0.28;0.28;;;;;;;12.87;83.20;99940.59;10420286;28;96918;-82
2023/12/03 21:39:50;;;;;;;1.27;0.28;;;;;;;12.84;84.64;99936.34;10420965;28;96978;-82
2023/12/03 21:45:00;;;;;;;0.20;0.20;;;;;;;12.88;83.27;99924.66;10420791;28;97307;-82
2023/12/03 21:50:13;;;;;;;0.20;0.20;;;;;;;12.85;84.35;99947.75;10420307;28;96707;-82
2023/12/03 21:55:23;;;;;;;0.10;0.10;;;;;;;12.85;84.13;99953.03;10419773;28;96677;-82
2023/12/03 22:00:37;;;;;;;;;;;;;;;;;;;;;
2023/12/03 22:12:13;;;;;;;0.10;0.10;;;;;;;12.75;86.99;99967.66;10419812;28;96814;-82
2023/12/03 22:17:57;;;;;;;0.20;0.20;;;;;;;12.88;86.06;99985.41;10386596;28;96601;-82
2023/12/03 22:24:01;;;;;;;;;;;;;;;;;;;;;
2023/12/03 22:29:54;;;;;;;0.10;0.10;;;;;;;12.96;86.71;100001.72;10180123;28;97581;-79
2023/12/03 22:35:39;;;;;;;0.10;0.10;;;;;;;13.00;87.03;100012.97;10407415;27;96797;-79
2023/12/03 22:41:20;;;;;;;0.28;0.28;;;;;;;13.15;86.68;100017.41;10426795;28;97192;-79
2023/12/03 22:47:00;;;;;;;0.10;0.10;;;;;;;13.27;86.13;100020.25;10406985;28;96821;-79
2023/12/03 22:52:11;;;;;;;0.47;0.20;;;;;;;13.32;86.08;100026.16;10424189;28;96755;-79
2023/12/03 22:58:04;;;;;;;0.00;0.00;;;;;;;13.42;85.39;100052.91;10424642;28;96691;-79
2023/12/03 23:09:18;;;;;;;0.20;0.20;;;;;;;13.26;88.10;100089.06;10422953;28;96733;-83
2023/12/03 23:14:53;;;;;;;1.30;0.50;;;;;;;13.22;88.04;100100.72;10396185;28;97215;-79
2023/12/03 23:20:17;;;;;;;0.50;0.30;;;;;;;13.13;87.49;100109.97;10397379;28;97242;-79
2023/12/03 23:25:40;;;;;;;0.63;0.30;;;;;;;13.10;87.23;100138.34;10423244;28;97192;-79
2023/12/03 23:31:17;;;;;;;0.65;0.50;;;;;;;13.09;87.13;100147.19;10422685;28;97246;-79
2023/12/03 23:36:34;;;;;;;0.75;0.50;;;;;;;13.07;86.99;100176.31;10419710;27;96800;-79
2023/12/03 23:42:02;;;;;;;0.80;0.60;;;;;;;13.00;87.73;100182.84;10422656;28;96776;-79
2023/12/03 23:47:29;;;;;;;;;;;;;;;;;;;;;
2023/12/03 23:53:04;;;;;;;0.82;0.60;;;;;;;12.93;87.50;100189.38;10417422;28;96861;-79
2023/12/03 23:58:36;;;;;;;1.98;0.85;;;;;;;12.92;87.22;100181.53;10292171;28;97523;-79
